Rapid City, SD

8:31 AM MST on December 07, 2016 (GMT -0700)
APRSWXNET | | Change Station

Elev 3264 ft 44.08 °N, 103.21 °W | Updated 23 minutes ago

Scattered Clouds
Scattered Clouds
7 °F
Feels Like -1 °F
N
4
Wind Variable Wind from NNE
Gusts 6.0 mph

Today
High -- | Low -- °F
--% Chance of Precip.
Yesterday
High -- | Low -- °F
Precip. -- in
Pressure 30.51 in
Visibility 10.0 miles
Clouds Scattered Clouds 2900 ft
Windchill -1 °F
Dew Point -4 °F
Humidity 61%
Rainfall in
Snow Depth Not available.
7:14 AM 4:14 PM
First Quarter, 53% visible
METAR KRAP 071452Z 32025G32KT 10SM SCT029 M14/M20 A3028 RMK AO2 PK WND 32032/1452 SLP330 T11441200 53025
Pressure 30.51 in
Visibility 10.0 miles
Clouds Scattered Clouds 2900 ft
Windchill -1 °F
Dew Point -4 °F
Humidity 61%
Rainfall in
Snow Depth Not available.
7:14 AM 4:14 PM
First Quarter, 53% visible
METAR KRAP 071452Z 32025G32KT 10SM SCT029 M14/M20 A3028 RMK AO2 PK WND 32032/1452 SLP330 T11441200 53025

10-Day Weather Forecast

Almanac

Astronomy

Dec. 07, 2016 Rise Set
Actual Time
Civil Twilight
Nautical Twilight
Astronomical Twilight
Moon
Length of Visible Light
Length of Day
Tomorrow will be .
, % of the Moon is Illuminated

Today's Extremes

State Highs State Lows

Community

WunderPhotos

Upload Photos

1,956,118 photos uploaded!

WunderBlog® & News

Nearby

Air Quality

  Air Quality AQ Index Pollutant
Not available.

Snow Depth

Station Depth Elevation

Earthquake Activity

City Distance Mag. Time & Date
Minimum magnitude displayed is 2.5.

Coastal Water Temperatures

Place Temperature

Stations

Nearby Weather Stations

Station Location Temp. Windchill Dew Point Humidity Wind Precip. Elev Updated Type
                   

Watches & Warnings

There are currently no watches in effect.